TimeEDT,TemperatureF,Dew PointF,Humidity,Sea Level PressureIn,VisibilityMPH,Wind Direction,Wind SpeedMPH,Gust SpeedMPH,PrecipitationIn,Events,Conditions,WindDirDegrees,DateUTC
12:53 AM,57.9,55.0,90,30.24,8.0,Calm,Calm,-,N/A,,Clear,0,2012-10-05 04:53:00
1:53 AM,57.0,55.0,93,30.23,7.0,Calm,Calm,-,N/A,,Clear,0,2012-10-05 05:53:00
2:24 AM,57.2,53.6,88,30.25,5.0,Calm,Calm,-,N/A,,Scattered Clouds,0,2012-10-05 06:24:00
2:33 AM,57.2,55.4,94,30.25,4.0,Calm,Calm,-,N/A,,Mostly Cloudy,0,2012-10-05 06:33:00
2:53 AM,57.0,55.0,93,30.22,4.0,Calm,Calm,-,N/A,,Mostly Cloudy,0,2012-10-05 06:53:00
3:20 AM,55.4,53.6,94,30.24,0.8,Calm,Calm,-,N/A,,Overcast,0,2012-10-05 07:20:00
3:53 AM,55.9,55.0,97,30.21,0.2,Calm,Calm,-,N/A,Fog,Fog,0,2012-10-05 07:53:00
4:53 AM,55.0,54.0,96,30.20,0.2,Calm,Calm,-,N/A,Fog,Fog,0,2012-10-05 08:53:00
5:53 AM,55.0,54.0,96,30.21,0.2,Calm,Calm,-,N/A,Fog,Fog,0,2012-10-05 09:53:00
6:53 AM,54.0,54.0,100,30.22,0.2,Calm,Calm,-,N/A,Fog,Fog,0,2012-10-05 10:53:00
7:53 AM,54.0,53.1,97,30.23,0.2,Calm,Calm,-,N/A,Fog,Fog,0,2012-10-05 11:53:00
8:53 AM,54.0,53.1,97,30.23,0.2,Calm,Calm,-,N/A,Fog,Fog,0,2012-10-05 12:53:00
9:53 AM,55.9,55.0,97,30.23,1.0,Calm,Calm,-,N/A,,Overcast,0,2012-10-05 13:53:00
10:00 AM,57.2,55.4,94,30.24,3.0,Calm,Calm,-,N/A,,Overcast,0,2012-10-05 14:00:00
10:36 AM,60.8,55.4,82,30.23,9.0,Calm,Calm,-,N/A,,Scattered Clouds,0,2012-10-05 14:36:00
10:53 AM,62.1,55.9,80,30.21,10.0,Calm,Calm,-,N/A,,Clear,0,2012-10-05 14:53:00
11:53 AM,69.1,55.9,63,30.19,10.0,Calm,Calm,-,N/A,,Clear,0,2012-10-05 15:53:00
12:53 PM,73.0,57.9,59,30.16,10.0,Variable,3.5,-,N/A,,Clear,0,2012-10-05 16:53:00
1:53 PM,75.9,57.9,54,30.13,10.0,SSW,4.6,-,N/A,,Scattered Clouds,200,2012-10-05 17:53:00
2:53 PM,77.0,55.9,48,30.09,10.0,Calm,Calm,-,N/A,,Mostly Cloudy,0,2012-10-05 18:53:00
3:53 PM,77.0,55.0,47,30.06,10.0,SSE,6.9,-,N/A,,Clear,160,2012-10-05 19:53:00
4:53 PM,78.1,52.0,40,30.04,10.0,SSW,4.6,-,N/A,,Clear,210,2012-10-05 20:53:00
5:53 PM,77.0,52.0,42,30.03,10.0,South,5.8,-,N/A,,Clear,190,2012-10-05 21:53:00
6:53 PM,73.9,54.0,50,30.02,10.0,Calm,Calm,-,N/A,,Clear,0,2012-10-05 22:53:00
7:53 PM,66.9,57.0,70,30.04,10.0,Calm,Calm,-,N/A,,Clear,0,2012-10-05 23:53:00
8:53 PM,64.0,57.0,78,30.04,10.0,Calm,Calm,-,N/A,,Clear,0,2012-10-06 00:53:00
9:53 PM,63.0,57.0,81,30.04,10.0,Calm,Calm,-,N/A,,Mostly Cloudy,0,2012-10-06 01:53:00
10:53 PM,61.0,57.0,87,30.04,10.0,Calm,Calm,-,N/A,,Clear,0,2012-10-06 02:53:00
11:53 PM,62.1,57.0,84,30.04,9.0,Calm,Calm,-,N/A,,Scattered Clouds,0,2012-10-06 03:53:00